sensor_id;sensor_type;location;lat;lon;timestamp;temperature;humidity
74822;DHT22;63353;48.702;8.884;2022-12-07T00:01:10;1.80;99.90
74822;DHT22;63353;48.702;8.884;2022-12-07T00:03:36;1.80;99.90
74822;DHT22;63353;48.702;8.884;2022-12-07T00:06:03;1.80;99.90
74822;DHT22;63353;48.702;8.884;2022-12-07T00:08:30;1.80;99.90
74822;DHT22;63353;48.702;8.884;2022-12-07T00:11:01;1.80;99.90
74822;DHT22;63353;48.702;8.884;2022-12-07T00:13:27;1.80;99.90
74822;DHT22;63353;48.702;8.884;2022-12-07T00:15:52;1.80;99.90
74822;DHT22;63353;48.702;8.884;2022-12-07T00:18:18;1.80;99.90
74822;DHT22;63353;48.702;8.884;2022-12-07T00:20:43;1.80;99.90
74822;DHT22;63353;48.702;8.884;2022-12-07T00:23:09;1.90;99.90
74822;DHT22;63353;48.702;8.884;2022-12-07T00:25:34;1.80;99.90
74822;DHT22;63353;48.702;8.884;2022-12-07T00:28:00;1.90;99.90
74822;DHT22;63353;48.702;8.884;2022-12-07T00:30:26;1.80;99.90
74822;DHT22;63353;48.702;8.884;2022-12-07T00:32:51;1.80;99.90
74822;DHT22;63353;48.702;8.884;2022-12-07T00:35:17;1.70;99.90
74822;DHT22;63353;48.702;8.884;2022-12-07T00:37:43;1.80;99.90
74822;DHT22;63353;48.702;8.884;2022-12-07T00:40:09;1.80;99.90
74822;DHT22;63353;48.702;8.884;2022-12-07T00:42:34;1.80;99.90
74822;DHT22;63353;48.702;8.884;2022-12-07T00:45:00;1.80;99.90
74822;DHT22;63353;48.702;8.884;2022-12-07T00:47:25;1.80;99.90
74822;DHT22;63353;48.702;8.884;2022-12-07T00:49:51;1.80;99.90
74822;DHT22;63353;48.702;8.884;2022-12-07T00:52:17;1.70;99.90
74822;DHT22;63353;48.702;8.884;2022-12-07T00:54:42;1.80;99.90
74822;DHT22;63353;48.702;8.884;2022-12-07T00:57:08;1.80;99.90
74822;DHT22;63353;48.702;8.884;2022-12-07T00:59:34;1.70;99.90
74822;DHT22;63353;48.702;8.884;2022-12-07T01:01:59;1.80;99.90
74822;DHT22;63353;48.702;8.884;2022-12-07T01:04:25;1.80;99.90
74822;DHT22;63353;48.702;8.884;2022-12-07T01:06:50;1.70;99.90
74822;DHT22;63353;48.702;8.884;2022-12-07T01:09:16;1.70;99.90
74822;DHT22;63353;48.702;8.884;2022-12-07T01:11:42;1.70;99.90
74822;DHT22;63353;48.702;8.884;2022-12-07T01:14:08;1.70;99.90
74822;DHT22;63353;48.702;8.884;2022-12-07T01:16:34;1.70;99.90
74822;DHT22;63353;48.702;8.884;2022-12-07T01:19:00;1.70;99.90
74822;DHT22;63353;48.702;8.884;2022-12-07T01:21:28;1.60;99.90
74822;DHT22;63353;48.702;8.884;2022-12-07T01:23:57;1.60;99.90
74822;DHT22;63353;48.702;8.884;2022-12-07T01:26:23;1.60;99.90
74822;DHT22;63353;48.702;8.884;2022-12-07T01:28:50;1.70;99.90
74822;DHT22;63353;48.702;8.884;2022-12-07T01:31:19;1.60;99.90
74822;DHT22;63353;48.702;8.884;2022-12-07T01:33:48;1.60;99.90
74822;DHT22;63353;48.702;8.884;2022-12-07T01:36:25;1.70;99.90
74822;DHT22;63353;48.702;8.884;2022-12-07T01:38:55;1.60;99.90
74822;DHT22;63353;48.702;8.884;2022-12-07T01:41:22;1.60;99.90
74822;DHT22;63353;48.702;8.884;2022-12-07T01:46:36;1.60;99.90
74822;DHT22;63353;48.702;8.884;2022-12-07T01:49:03;1.60;99.90
74822;DHT22;63353;48.702;8.884;2022-12-07T01:51:30;1.60;99.90
74822;DHT22;63353;48.702;8.884;2022-12-07T01:53:56;1.50;99.90
74822;DHT22;63353;48.702;8.884;2022-12-07T01:56:24;1.60;99.90
74822;DHT22;63353;48.702;8.884;2022-12-07T01:58:51;1.50;99.90
74822;DHT22;63353;48.702;8.884;2022-12-07T02:01:18;1.50;99.90
74822;DHT22;63353;48.702;8.884;2022-12-07T02:03:44;1.40;99.90
74822;DHT22;63353;48.702;8.884;2022-12-07T02:06:13;1.40;99.90
74822;DHT22;63353;48.702;8.884;2022-12-07T02:08:42;1.40;99.90
74822;DHT22;63353;48.702;8.884;2022-12-07T02:11:08;1.50;99.90
74822;DHT22;63353;48.702;8.884;2022-12-07T02:13:37;1.50;99.90
74822;DHT22;63353;48.702;8.884;2022-12-07T02:16:05;1.40;99.90
74822;DHT22;63353;48.702;8.884;2022-12-07T02:21:32;1.40;99.90
74822;DHT22;63353;48.702;8.884;2022-12-07T02:24:24;1.50;99.90
74822;DHT22;63353;48.702;8.884;2022-12-07T02:27:07;1.40;99.90
74822;DHT22;63353;48.702;8.884;2022-12-07T02:35:07;1.40;99.90
74822;DHT22;63353;48.702;8.884;2022-12-07T02:40:15;1.40;99.90
74822;DHT22;63353;48.702;8.884;2022-12-07T02:43:27;1.40;99.90
74822;DHT22;63353;48.702;8.884;2022-12-07T02:45:46;1.30;99.90
74822;DHT22;63353;48.702;8.884;2022-12-07T02:48:15;1.40;99.90
74822;DHT22;63353;48.702;8.884;2022-12-07T02:50:47;1.30;99.90
74822;DHT22;63353;48.702;8.884;2022-12-07T02:56:38;1.30;99.90
74822;DHT22;63353;48.702;8.884;2022-12-07T03:10:37;1.20;99.90
74822;DHT22;63353;48.702;8.884;2022-12-07T03:13:26;1.20;99.90
74822;DHT22;63353;48.702;8.884;2022-12-07T03:16:11;1.20;99.90
74822;DHT22;63353;48.702;8.884;2022-12-07T03:19:00;1.20;99.90
74822;DHT22;63353;48.702;8.884;2022-12-07T03:21:32;1.20;99.90
74822;DHT22;63353;48.702;8.884;2022-12-07T03:24:00;1.20;99.90
74822;DHT22;63353;48.702;8.884;2022-12-07T03:26:34;1.20;99.90
74822;DHT22;63353;48.702;8.884;2022-12-07T03:29:05;1.20;99.90
74822;DHT22;63353;48.702;8.884;2022-12-07T03:31:36;1.10;99.90
74822;DHT22;63353;48.702;8.884;2022-12-07T03:34:38;1.10;99.90
74822;DHT22;63353;48.702;8.884;2022-12-07T03:37:10;1.10;99.90
74822;DHT22;63353;48.702;8.884;2022-12-07T03:40:28;1.10;99.90
74822;DHT22;63353;48.702;8.884;2022-12-07T03:42:28;1.10;99.90
74822;DHT22;63353;48.702;8.884;2022-12-07T03:44:55;1.10;99.90
74822;DHT22;63353;48.702;8.884;2022-12-07T03:47:31;1.10;99.90
74822;DHT22;63353;48.702;8.884;2022-12-07T03:50:21;1.10;99.90
74822;DHT22;63353;48.702;8.884;2022-12-07T03:52:58;1.10;99.90
74822;DHT22;63353;48.702;8.884;2022-12-07T03:55:30;1.10;99.90
74822;DHT22;63353;48.702;8.884;2022-12-07T03:58:01;1.10;99.90
74822;DHT22;63353;48.702;8.884;2022-12-07T04:00:28;1.10;99.90
74822;DHT22;63353;48.702;8.884;2022-12-07T04:02:55;1.10;99.90
74822;DHT22;63353;48.702;8.884;2022-12-07T04:05:21;1.10;99.90
74822;DHT22;63353;48.702;8.884;2022-12-07T04:07:47;1.10;99.90
74822;DHT22;63353;48.702;8.884;2022-12-07T04:10:13;1.00;99.90
74822;DHT22;63353;48.702;8.884;2022-12-07T04:12:39;1.00;99.90
74822;DHT22;63353;48.702;8.884;2022-12-07T04:15:05;1.00;99.90
74822;DHT22;63353;48.702;8.884;2022-12-07T04:17:31;1.00;99.90
74822;DHT22;63353;48.702;8.884;2022-12-07T04:19:57;1.00;99.90
74822;DHT22;63353;48.702;8.884;2022-12-07T04:22:22;1.00;99.90
74822;DHT22;63353;48.702;8.884;2022-12-07T04:24:48;1.00;99.90
74822;DHT22;63353;48.702;8.884;2022-12-07T04:27:14;1.00;99.90
74822;DHT22;63353;48.702;8.884;2022-12-07T04:29:39;1.00;99.90
74822;DHT22;63353;48.702;8.884;2022-12-07T04:32:05;1.00;99.90
74822;DHT22;63353;48.702;8.884;2022-12-07T04:34:31;1.00;99.90
74822;DHT22;63353;48.702;8.884;2022-12-07T04:36:56;1.10;99.90
74822;DHT22;63353;48.702;8.884;2022-12-07T04:39:28;1.10;99.90
74822;DHT22;63353;48.702;8.884;2022-12-07T04:41:54;1.00;99.90
74822;DHT22;63353;48.702;8.884;2022-12-07T04:44:22;1.00;99.90
74822;DHT22;63353;48.702;8.884;2022-12-07T04:46:48;1.00;99.90
74822;DHT22;63353;48.702;8.884;2022-12-07T04:49:14;0.90;99.90
74822;DHT22;63353;48.702;8.884;2022-12-07T04:51:40;0.90;99.90
74822;DHT22;63353;48.702;8.884;2022-12-07T04:54:06;0.80;99.90
74822;DHT22;63353;48.702;8.884;2022-12-07T04:56:32;0.60;99.90
74822;DHT22;63353;48.702;8.884;2022-12-07T04:58:59;0.50;99.90
74822;DHT22;63353;48.702;8.884;2022-12-07T05:01:25;0.50;99.90
74822;DHT22;63353;48.702;8.884;2022-12-07T05:03:51;0.70;99.90
74822;DHT22;63353;48.702;8.884;2022-12-07T05:06:17;0.70;99.90
74822;DHT22;63353;48.702;8.884;2022-12-07T05:08:42;0.60;99.90
74822;DHT22;63353;48.702;8.884;2022-12-07T05:11:09;0.60;99.90
74822;DHT22;63353;48.702;8.884;2022-12-07T05:13:36;0.60;99.90
74822;DHT22;63353;48.702;8.884;2022-12-07T05:16:02;0.70;99.90
74822;DHT22;63353;48.702;8.884;2022-12-07T05:18:27;0.60;99.90
74822;DHT22;63353;48.702;8.884;2022-12-07T05:20:53;0.60;99.90
74822;DHT22;63353;48.702;8.884;2022-12-07T05:23:19;0.40;99.90
74822;DHT22;63353;48.702;8.884;2022-12-07T05:25:45;0.30;99.90
74822;DHT22;63353;48.702;8.884;2022-12-07T05:28:11;0.20;99.90
74822;DHT22;63353;48.702;8.884;2022-12-07T05:30:37;0.00;99.90
74822;DHT22;63353;48.702;8.884;2022-12-07T05:33:03;-0.10;99.90
74822;DHT22;63353;48.702;8.884;2022-12-07T05:35:29;-0.10;99.90
74822;DHT22;63353;48.702;8.884;2022-12-07T05:37:55;-0.30;99.90
74822;DHT22;63353;48.702;8.884;2022-12-07T05:40:22;-0.40;99.90
74822;DHT22;63353;48.702;8.884;2022-12-07T05:42:48;-0.40;99.90
74822;DHT22;63353;48.702;8.884;2022-12-07T05:45:13;-0.50;99.90
74822;DHT22;63353;48.702;8.884;2022-12-07T05:47:39;-0.60;99.90
74822;DHT22;63353;48.702;8.884;2022-12-07T05:50:05;-0.70;99.90
74822;DHT22;63353;48.702;8.884;2022-12-07T05:52:31;-0.70;99.90
74822;DHT22;63353;48.702;8.884;2022-12-07T05:54:57;-0.80;99.90
74822;DHT22;63353;48.702;8.884;2022-12-07T05:57:23;-0.90;99.90
74822;DHT22;63353;48.702;8.884;2022-12-07T05:59:48;-1.00;99.90
74822;DHT22;63353;48.702;8.884;2022-12-07T06:02:15;-1.00;99.90
74822;DHT22;63353;48.702;8.884;2022-12-07T06:04:46;-1.10;99.90
74822;DHT22;63353;48.702;8.884;2022-12-07T06:07:13;-1.00;99.90
74822;DHT22;63353;48.702;8.884;2022-12-07T06:09:39;-1.00;99.90
74822;DHT22;63353;48.702;8.884;2022-12-07T06:12:06;-1.00;99.90
74822;DHT22;63353;48.702;8.884;2022-12-07T06:14:50;-1.00;99.90
74822;DHT22;63353;48.702;8.884;2022-12-07T06:17:16;-1.00;99.90
74822;DHT22;63353;48.702;8.884;2022-12-07T06:19:42;-0.90;99.90
74822;DHT22;63353;48.702;8.884;2022-12-07T06:22:09;-1.00;99.90
74822;DHT22;63353;48.702;8.884;2022-12-07T06:24:37;-0.90;99.90
74822;DHT22;63353;48.702;8.884;2022-12-07T06:27:03;-0.70;99.90
74822;DHT22;63353;48.702;8.884;2022-12-07T06:29:29;-0.70;99.90
74822;DHT22;63353;48.702;8.884;2022-12-07T06:31:54;-0.70;99.90
74822;DHT22;63353;48.702;8.884;2022-12-07T06:34:21;-0.60;99.90
74822;DHT22;63353;48.702;8.884;2022-12-07T06:36:48;-0.60;99.90
74822;DHT22;63353;48.702;8.884;2022-12-07T06:39:18;-0.60;99.90
74822;DHT22;63353;48.702;8.884;2022-12-07T06:41:44;-0.60;99.90
74822;DHT22;63353;48.702;8.884;2022-12-07T06:44:10;-0.60;99.90
74822;DHT22;63353;48.702;8.884;2022-12-07T06:46:35;-0.50;99.90
74822;DHT22;63353;48.702;8.884;2022-12-07T06:49:02;-0.50;99.90
74822;DHT22;63353;48.702;8.884;2022-12-07T06:51:28;-0.50;99.90
74822;DHT22;63353;48.702;8.884;2022-12-07T06:53:53;-0.50;99.90
74822;DHT22;63353;48.702;8.884;2022-12-07T06:56:19;-0.50;99.90
74822;DHT22;63353;48.702;8.884;2022-12-07T06:58:45;-0.50;99.90
74822;DHT22;63353;48.702;8.884;2022-12-07T07:01:12;-0.50;99.90
74822;DHT22;63353;48.702;8.884;2022-12-07T07:03:38;-0.50;99.90
74822;DHT22;63353;48.702;8.884;2022-12-07T07:06:05;-0.50;99.90
74822;DHT22;63353;48.702;8.884;2022-12-07T07:08:33;-0.50;99.90
74822;DHT22;63353;48.702;8.884;2022-12-07T07:10:59;-0.50;99.90
74822;DHT22;63353;48.702;8.884;2022-12-07T07:13:24;-0.50;99.90
74822;DHT22;63353;48.702;8.884;2022-12-07T07:15:50;-0.40;99.90
74822;DHT22;63353;48.702;8.884;2022-12-07T07:18:16;-0.40;99.90
74822;DHT22;63353;48.702;8.884;2022-12-07T07:20:41;-0.40;99.90
74822;DHT22;63353;48.702;8.884;2022-12-07T07:23:07;-0.30;99.90
74822;DHT22;63353;48.702;8.884;2022-12-07T07:25:33;-0.30;99.90
74822;DHT22;63353;48.702;8.884;2022-12-07T07:27:59;-0.20;99.90
74822;DHT22;63353;48.702;8.884;2022-12-07T07:30:24;-0.10;99.90
74822;DHT22;63353;48.702;8.884;2022-12-07T07:32:50;0.00;99.90
74822;DHT22;63353;48.702;8.884;2022-12-07T07:35:16;0.00;99.90
74822;DHT22;63353;48.702;8.884;2022-12-07T07:37:42;0.00;99.90
74822;DHT22;63353;48.702;8.884;2022-12-07T07:40:09;0.10;99.90
74822;DHT22;63353;48.702;8.884;2022-12-07T07:42:35;0.20;99.90
74822;DHT22;63353;48.702;8.884;2022-12-07T07:45:00;0.30;99.90
74822;DHT22;63353;48.702;8.884;2022-12-07T07:47:26;0.30;99.90
74822;DHT22;63353;48.702;8.884;2022-12-07T07:49:52;0.30;99.90
74822;DHT22;63353;48.702;8.884;2022-12-07T07:52:17;0.40;99.90
74822;DHT22;63353;48.702;8.884;2022-12-07T07:54:43;0.50;99.90
74822;DHT22;63353;48.702;8.884;2022-12-07T07:57:08;0.50;99.90
74822;DHT22;63353;48.702;8.884;2022-12-07T07:59:34;0.50;99.90
74822;DHT22;63353;48.702;8.884;2022-12-07T08:01:59;0.60;99.90
74822;DHT22;63353;48.702;8.884;2022-12-07T08:04:25;0.50;99.90
74822;DHT22;63353;48.702;8.884;2022-12-07T08:06:51;0.60;99.90
74822;DHT22;63353;48.702;8.884;2022-12-07T08:09:17;0.60;99.90
74822;DHT22;63353;48.702;8.884;2022-12-07T08:11:42;0.60;99.90
74822;DHT22;63353;48.702;8.884;2022-12-07T08:14:09;0.60;99.90
74822;DHT22;63353;48.702;8.884;2022-12-07T08:16:35;0.70;99.90
74822;DHT22;63353;48.702;8.884;2022-12-07T08:19:00;0.80;99.90
74822;DHT22;63353;48.702;8.884;2022-12-07T08:21:26;0.90;99.90
74822;DHT22;63353;48.702;8.884;2022-12-07T08:23:52;0.90;99.90
74822;DHT22;63353;48.702;8.884;2022-12-07T08:26:17;0.90;99.90
74822;DHT22;63353;48.702;8.884;2022-12-07T08:28:43;0.90;99.90
74822;DHT22;63353;48.702;8.884;2022-12-07T08:31:13;1.00;99.90
74822;DHT22;63353;48.702;8.884;2022-12-07T08:33:39;1.00;99.90
74822;DHT22;63353;48.702;8.884;2022-12-07T08:36:08;1.00;99.90
74822;DHT22;63353;48.702;8.884;2022-12-07T08:38:35;1.10;99.90
74822;DHT22;63353;48.702;8.884;2022-12-07T08:41:01;1.10;99.90
74822;DHT22;63353;48.702;8.884;2022-12-07T08:43:27;1.10;99.90
74822;DHT22;63353;48.702;8.884;2022-12-07T08:46:19;1.20;99.90
74822;DHT22;63353;48.702;8.884;2022-12-07T08:49:13;1.20;99.90
74822;DHT22;63353;48.702;8.884;2022-12-07T08:51:41;1.30;99.90
74822;DHT22;63353;48.702;8.884;2022-12-07T08:54:10;1.40;99.90
74822;DHT22;63353;48.702;8.884;2022-12-07T08:56:36;1.50;99.90
74822;DHT22;63353;48.702;8.884;2022-12-07T08:59:03;1.50;99.90
74822;DHT22;63353;48.702;8.884;2022-12-07T09:01:29;1.60;99.90
74822;DHT22;63353;48.702;8.884;2022-12-07T09:03:55;1.60;99.90
74822;DHT22;63353;48.702;8.884;2022-12-07T09:06:20;1.70;99.90
74822;DHT22;63353;48.702;8.884;2022-12-07T09:08:51;1.70;99.90
74822;DHT22;63353;48.702;8.884;2022-12-07T09:11:18;1.80;99.90
74822;DHT22;63353;48.702;8.884;2022-12-07T09:13:44;1.80;99.90
74822;DHT22;63353;48.702;8.884;2022-12-07T09:16:09;1.90;99.90
74822;DHT22;63353;48.702;8.884;2022-12-07T09:18:35;1.90;99.90
74822;DHT22;63353;48.702;8.884;2022-12-07T09:21:01;1.90;99.90
74822;DHT22;63353;48.702;8.884;2022-12-07T09:23:26;2.00;99.90
74822;DHT22;63353;48.702;8.884;2022-12-07T09:25:52;2.00;99.90
74822;DHT22;63353;48.702;8.884;2022-12-07T09:28:17;2.10;99.90
74822;DHT22;63353;48.702;8.884;2022-12-07T09:30:47;2.10;99.90
74822;DHT22;63353;48.702;8.884;2022-12-07T09:33:13;2.20;99.90
74822;DHT22;63353;48.702;8.884;2022-12-07T09:35:47;2.30;99.90
74822;DHT22;63353;48.702;8.884;2022-12-07T09:38:13;2.30;99.90
74822;DHT22;63353;48.702;8.884;2022-12-07T09:40:40;2.40;99.90
74822;DHT22;63353;48.702;8.884;2022-12-07T09:43:17;2.50;99.90
74822;DHT22;63353;48.702;8.884;2022-12-07T09:45:43;2.60;99.90
74822;DHT22;63353;48.702;8.884;2022-12-07T09:48:21;2.70;99.90
74822;DHT22;63353;48.702;8.884;2022-12-07T09:50:48;2.80;99.90
74822;DHT22;63353;48.702;8.884;2022-12-07T09:53:24;2.90;99.90
74822;DHT22;63353;48.702;8.884;2022-12-07T09:55:50;2.90;99.90
74822;DHT22;63353;48.702;8.884;2022-12-07T09:58:26;3.00;99.90
74822;DHT22;63353;48.702;8.884;2022-12-07T10:00:59;3.10;99.90
74822;DHT22;63353;48.702;8.884;2022-12-07T10:03:27;3.30;99.90
74822;DHT22;63353;48.702;8.884;2022-12-07T10:05:54;3.20;99.90
74822;DHT22;63353;48.702;8.884;2022-12-07T10:08:20;3.20;99.90
74822;DHT22;63353;48.702;8.884;2022-12-07T10:10:50;3.20;99.90
74822;DHT22;63353;48.702;8.884;2022-12-07T10:13:34;3.30;99.90
74822;DHT22;63353;48.702;8.884;2022-12-07T10:16:01;3.30;99.90
74822;DHT22;63353;48.702;8.884;2022-12-07T10:18:38;3.60;99.90
74822;DHT22;63353;48.702;8.884;2022-12-07T10:21:17;3.70;99.90
74822;DHT22;63353;48.702;8.884;2022-12-07T10:29:24;3.80;99.90
74822;DHT22;63353;48.702;8.884;2022-12-07T10:34:42;4.00;99.90
74822;DHT22;63353;48.702;8.884;2022-12-07T10:39:53;4.20;99.90
74822;DHT22;63353;48.702;8.884;2022-12-07T10:42:24;4.00;99.90
74822;DHT22;63353;48.702;8.884;2022-12-07T10:45:16;3.90;99.90
74822;DHT22;63353;48.702;8.884;2022-12-07T10:56:45;3.90;99.90
74822;DHT22;63353;48.702;8.884;2022-12-07T11:02:44;4.20;99.90
74822;DHT22;63353;48.702;8.884;2022-12-07T11:13:59;4.40;99.90
74822;DHT22;63353;48.702;8.884;2022-12-07T11:17:02;4.40;99.90
74822;DHT22;63353;48.702;8.884;2022-12-07T11:19:39;4.30;99.90
74822;DHT22;63353;48.702;8.884;2022-12-07T11:27:42;4.30;99.90
74822;DHT22;63353;48.702;8.884;2022-12-07T11:37:46;4.20;99.90
74822;DHT22;63353;48.702;8.884;2022-12-07T11:40:22;4.10;99.90
74822;DHT22;63353;48.702;8.884;2022-12-07T11:42:58;3.90;99.90
74822;DHT22;63353;48.702;8.884;2022-12-07T11:45:35;3.90;99.90
74822;DHT22;63353;48.702;8.884;2022-12-07T11:48:15;3.80;99.90
74822;DHT22;63353;48.702;8.884;2022-12-07T11:50:52;3.70;99.90
74822;DHT22;63353;48.702;8.884;2022-12-07T11:53:20;3.70;99.90
74822;DHT22;63353;48.702;8.884;2022-12-07T11:55:57;3.60;99.90
74822;DHT22;63353;48.702;8.884;2022-12-07T12:04:06;3.40;99.90
74822;DHT22;63353;48.702;8.884;2022-12-07T12:06:39;3.40;99.90
74822;DHT22;63353;48.702;8.884;2022-12-07T12:09:21;3.50;99.90
74822;DHT22;63353;48.702;8.884;2022-12-07T12:12:16;3.50;99.90
74822;DHT22;63353;48.702;8.884;2022-12-07T12:23:17;3.90;99.90
74822;DHT22;63353;48.702;8.884;2022-12-07T12:25:54;3.90;99.90
74822;DHT22;63353;48.702;8.884;2022-12-07T12:28:28;3.90;99.90
74822;DHT22;63353;48.702;8.884;2022-12-07T12:31:13;3.80;99.90
74822;DHT22;63353;48.702;8.884;2022-12-07T12:33:53;3.80;99.90
74822;DHT22;63353;48.702;8.884;2022-12-07T12:54:30;3.70;99.90
74822;DHT22;63353;48.702;8.884;2022-12-07T12:57:08;3.60;99.90
74822;DHT22;63353;48.702;8.884;2022-12-07T12:59:57;3.70;99.90
74822;DHT22;63353;48.702;8.884;2022-12-07T13:02:54;3.70;99.90
74822;DHT22;63353;48.702;8.884;2022-12-07T13:05:22;3.50;99.90
74822;DHT22;63353;48.702;8.884;2022-12-07T13:07:55;3.60;99.90
74822;DHT22;63353;48.702;8.884;2022-12-07T13:15:54;3.70;99.90
74822;DHT22;63353;48.702;8.884;2022-12-07T13:24:10;3.70;99.90
74822;DHT22;63353;48.702;8.884;2022-12-07T13:26:23;3.80;99.90
74822;DHT22;63353;48.702;8.884;2022-12-07T13:28:52;3.80;99.90
74822;DHT22;63353;48.702;8.884;2022-12-07T13:31:45;3.90;99.90
74822;DHT22;63353;48.702;8.884;2022-12-07T13:34:39;3.80;99.90
74822;DHT22;63353;48.702;8.884;2022-12-07T13:39:35;3.90;99.90
74822;DHT22;63353;48.702;8.884;2022-12-07T13:42:36;3.80;99.90
74822;DHT22;63353;48.702;8.884;2022-12-07T13:47:54;3.80;99.90
74822;DHT22;63353;48.702;8.884;2022-12-07T13:50:30;3.70;99.90
74822;DHT22;63353;48.702;8.884;2022-12-07T13:53:00;3.60;99.90
74822;DHT22;63353;48.702;8.884;2022-12-07T13:55:28;3.60;99.90
74822;DHT22;63353;48.702;8.884;2022-12-07T13:57:55;3.60;99.90
74822;DHT22;63353;48.702;8.884;2022-12-07T14:00:28;3.50;99.90
74822;DHT22;63353;48.702;8.884;2022-12-07T14:03:03;3.50;99.90
74822;DHT22;63353;48.702;8.884;2022-12-07T14:05:33;3.60;99.90
74822;DHT22;63353;48.702;8.884;2022-12-07T14:08:02;3.60;99.90
74822;DHT22;63353;48.702;8.884;2022-12-07T14:10:35;3.60;99.90
74822;DHT22;63353;48.702;8.884;2022-12-07T14:13:03;3.60;99.90
74822;DHT22;63353;48.702;8.884;2022-12-07T14:15:50;3.60;99.90
74822;DHT22;63353;48.702;8.884;2022-12-07T14:18:34;4.00;99.90
74822;DHT22;63353;48.702;8.884;2022-12-07T14:23:30;4.80;99.90
74822;DHT22;63353;48.702;8.884;2022-12-07T14:26:07;4.90;99.90
74822;DHT22;63353;48.702;8.884;2022-12-07T14:28:35;5.20;99.90
74822;DHT22;63353;48.702;8.884;2022-12-07T14:31:02;5.50;99.90
74822;DHT22;63353;48.702;8.884;2022-12-07T14:33:28;5.40;99.90
74822;DHT22;63353;48.702;8.884;2022-12-07T14:35:54;5.20;99.90
74822;DHT22;63353;48.702;8.884;2022-12-07T14:38:21;4.80;99.90
74822;DHT22;63353;48.702;8.884;2022-12-07T14:40:48;4.60;99.90
74822;DHT22;63353;48.702;8.884;2022-12-07T14:43:16;4.40;99.90
74822;DHT22;63353;48.702;8.884;2022-12-07T14:45:42;4.10;99.90
74822;DHT22;63353;48.702;8.884;2022-12-07T14:48:11;3.90;99.90
74822;DHT22;63353;48.702;8.884;2022-12-07T14:50:40;3.80;99.90
74822;DHT22;63353;48.702;8.884;2022-12-07T14:53:24;3.70;99.90
74822;DHT22;63353;48.702;8.884;2022-12-07T14:55:52;3.60;99.90
74822;DHT22;63353;48.702;8.884;2022-12-07T14:58:18;3.60;99.90
74822;DHT22;63353;48.702;8.884;2022-12-07T15:00:44;3.60;99.90
74822;DHT22;63353;48.702;8.884;2022-12-07T15:03:10;3.50;99.90
74822;DHT22;63353;48.702;8.884;2022-12-07T15:05:36;3.30;99.90
74822;DHT22;63353;48.702;8.884;2022-12-07T15:08:02;3.30;99.90
74822;DHT22;63353;48.702;8.884;2022-12-07T15:10:31;3.30;99.90
74822;DHT22;63353;48.702;8.884;2022-12-07T15:12:58;3.20;99.90
74822;DHT22;63353;48.702;8.884;2022-12-07T15:15:43;3.10;99.90
74822;DHT22;63353;48.702;8.884;2022-12-07T15:18:08;2.90;99.90
74822;DHT22;63353;48.702;8.884;2022-12-07T15:20:34;2.90;99.90
74822;DHT22;63353;48.702;8.884;2022-12-07T15:22:59;2.90;99.90
74822;DHT22;63353;48.702;8.884;2022-12-07T15:25:25;2.80;99.90
74822;DHT22;63353;48.702;8.884;2022-12-07T15:27:51;2.70;99.90
74822;DHT22;63353;48.702;8.884;2022-12-07T15:30:16;2.70;99.90
74822;DHT22;63353;48.702;8.884;2022-12-07T15:32:42;2.60;99.90
74822;DHT22;63353;48.702;8.884;2022-12-07T15:37:43;2.40;99.90
74822;DHT22;63353;48.702;8.884;2022-12-07T15:40:09;2.30;99.90
74822;DHT22;63353;48.702;8.884;2022-12-07T15:42:35;2.30;99.90
74822;DHT22;63353;48.702;8.884;2022-12-07T15:47:34;2.20;99.90
74822;DHT22;63353;48.702;8.884;2022-12-07T15:50:03;2.10;99.90
74822;DHT22;63353;48.702;8.884;2022-12-07T15:52:48;2.10;99.90
74822;DHT22;63353;48.702;8.884;2022-12-07T15:55:14;2.20;99.90
74822;DHT22;63353;48.702;8.884;2022-12-07T15:57:40;2.10;99.90
74822;DHT22;63353;48.702;8.884;2022-12-07T16:00:07;2.10;99.90
74822;DHT22;63353;48.702;8.884;2022-12-07T16:02:37;2.10;99.90
74822;DHT22;63353;48.702;8.884;2022-12-07T16:05:03;2.00;99.90
74822;DHT22;63353;48.702;8.884;2022-12-07T16:07:29;2.00;99.90
74822;DHT22;63353;48.702;8.884;2022-12-07T16:09:55;2.00;99.90
74822;DHT22;63353;48.702;8.884;2022-12-07T16:12:20;2.00;99.90
74822;DHT22;63353;48.702;8.884;2022-12-07T16:14:46;1.90;99.90
74822;DHT22;63353;48.702;8.884;2022-12-07T16:19:42;1.80;99.90
74822;DHT22;63353;48.702;8.884;2022-12-07T16:22:08;1.80;99.90
74822;DHT22;63353;48.702;8.884;2022-12-07T16:24:36;1.70;99.90
74822;DHT22;63353;48.702;8.884;2022-12-07T16:27:02;1.70;99.90
74822;DHT22;63353;48.702;8.884;2022-12-07T16:29:28;1.70;99.90
74822;DHT22;63353;48.702;8.884;2022-12-07T16:31:53;1.70;99.90
74822;DHT22;63353;48.702;8.884;2022-12-07T16:34:22;1.60;99.90
74822;DHT22;63353;48.702;8.884;2022-12-07T16:36:57;1.60;99.90
74822;DHT22;63353;48.702;8.884;2022-12-07T16:39:23;1.50;99.90
74822;DHT22;63353;48.702;8.884;2022-12-07T16:41:49;1.50;99.90
74822;DHT22;63353;48.702;8.884;2022-12-07T16:44:15;1.40;99.90
74822;DHT22;63353;48.702;8.884;2022-12-07T16:46:42;1.40;99.90
74822;DHT22;63353;48.702;8.884;2022-12-07T16:49:12;1.30;99.90
74822;DHT22;63353;48.702;8.884;2022-12-07T16:51:38;1.20;99.90
74822;DHT22;63353;48.702;8.884;2022-12-07T16:54:04;1.20;99.90
74822;DHT22;63353;48.702;8.884;2022-12-07T16:56:33;1.10;99.90
74822;DHT22;63353;48.702;8.884;2022-12-07T16:58:59;1.00;99.90
74822;DHT22;63353;48.702;8.884;2022-12-07T17:01:25;1.00;99.90
74822;DHT22;63353;48.702;8.884;2022-12-07T17:03:53;0.90;99.90
74822;DHT22;63353;48.702;8.884;2022-12-07T17:06:24;0.80;99.90
74822;DHT22;63353;48.702;8.884;2022-12-07T17:08:51;0.80;99.90
74822;DHT22;63353;48.702;8.884;2022-12-07T17:11:22;0.80;99.90
74822;DHT22;63353;48.702;8.884;2022-12-07T17:13:48;0.70;99.90
74822;DHT22;63353;48.702;8.884;2022-12-07T17:16:33;0.60;99.90
74822;DHT22;63353;48.702;8.884;2022-12-07T17:19:09;0.60;99.90
74822;DHT22;63353;48.702;8.884;2022-12-07T17:21:35;0.60;99.90
74822;DHT22;63353;48.702;8.884;2022-12-07T17:24:03;0.70;99.90
74822;DHT22;63353;48.702;8.884;2022-12-07T17:26:29;0.50;99.90
74822;DHT22;63353;48.702;8.884;2022-12-07T17:28:56;0.50;99.90
74822;DHT22;63353;48.702;8.884;2022-12-07T17:31:23;0.40;99.90
74822;DHT22;63353;48.702;8.884;2022-12-07T17:33:49;0.30;99.90
74822;DHT22;63353;48.702;8.884;2022-12-07T17:36:24;0.30;99.90
74822;DHT22;63353;48.702;8.884;2022-12-07T17:38:50;0.30;99.90
74822;DHT22;63353;48.702;8.884;2022-12-07T17:41:22;0.30;99.90
74822;DHT22;63353;48.702;8.884;2022-12-07T17:44:09;0.30;99.90
74822;DHT22;63353;48.702;8.884;2022-12-07T17:46:35;0.30;99.90
74822;DHT22;63353;48.702;8.884;2022-12-07T17:49:02;0.30;99.90
74822;DHT22;63353;48.702;8.884;2022-12-07T17:51:27;0.30;99.90
74822;DHT22;63353;48.702;8.884;2022-12-07T17:54:12;0.30;99.90
74822;DHT22;63353;48.702;8.884;2022-12-07T17:56:44;0.30;99.90
74822;DHT22;63353;48.702;8.884;2022-12-07T17:59:10;0.30;99.90
74822;DHT22;63353;48.702;8.884;2022-12-07T18:01:42;0.20;99.90
74822;DHT22;63353;48.702;8.884;2022-12-07T18:04:08;0.20;99.90
74822;DHT22;63353;48.702;8.884;2022-12-07T18:06:37;0.10;99.90
74822;DHT22;63353;48.702;8.884;2022-12-07T18:09:06;0.10;99.90
74822;DHT22;63353;48.702;8.884;2022-12-07T18:11:38;0.10;99.90